createdAt,value
2018-06-08T00:00:18.557Z,30.32
2018-06-08T00:01:22.809Z,35.40
2018-06-08T00:02:26.223Z,29.07
2018-06-08T00:03:29.607Z,30.20
2018-06-08T00:04:32.991Z,27.42
2018-06-08T00:05:37.482Z,27.98
2018-06-08T00:06:40.895Z,31.37
2018-06-08T00:07:44.293Z,28.85
2018-06-08T00:08:47.667Z,31.37
2018-06-08T00:09:51.055Z,30.97
2018-06-08T00:10:54.860Z,32.45
2018-06-08T00:11:58.284Z,31.35
2018-06-08T00:13:01.670Z,29.75
2018-06-08T00:14:05.135Z,29.40
2018-06-08T00:15:09.692Z,34.58
2018-06-08T00:16:13.506Z,32.45
2018-06-08T00:17:16.947Z,28.45
2018-06-08T00:18:20.316Z,31.80
2018-06-08T00:19:23.705Z,31.15
2018-06-08T00:20:28.183Z,31.90
2018-06-08T00:21:31.612Z,31.82
2018-06-08T00:22:35.016Z,29.27
2018-06-08T00:23:38.403Z,27.70
2018-06-08T00:24:41.793Z,31.12
2018-06-08T00:25:46.187Z,30.65
2018-06-08T00:26:49.611Z,30.35
2018-06-08T00:27:53.037Z,30.75
2018-06-08T00:28:56.419Z,29.25
2018-06-08T00:29:59.809Z,32.15
2018-06-08T00:31:04.489Z,29.23
2018-06-08T00:32:07.891Z,30.40
2018-06-08T00:33:11.291Z,29.65
2018-06-08T00:34:14.677Z,31.77
2018-06-08T00:35:19.045Z,32.45
2018-06-08T00:36:23.046Z,30.32
2018-06-08T00:37:26.439Z,30.43
2018-06-08T00:38:29.839Z,29.20
2018-06-08T00:39:32.915Z,31.42
2018-06-08T00:40:37.585Z,31.80
2018-06-08T00:41:41.007Z,30.35
2018-06-08T00:42:44.391Z,29.72
2018-06-08T00:43:47.795Z,28.02
2018-06-08T00:44:50.874Z,30.32
2018-06-08T00:45:55.664Z,29.75
2018-06-08T00:46:58.778Z,32.55
2018-06-08T00:48:01.854Z,29.85
2018-06-08T00:49:04.950Z,29.37
2018-06-08T00:50:09.434Z,33.33
2018-06-08T00:51:14.421Z,30.92
2018-06-08T00:52:17.835Z,31.68
2018-06-08T00:53:21.219Z,30.72
2018-06-08T00:54:24.615Z,31.50
2018-06-08T00:55:28.994Z,33.00
2018-06-08T00:56:43.784Z,26.75
2018-06-08T00:57:46.871Z,29.02
2018-06-08T00:58:49.970Z,31.15
2018-06-08T00:59:53.355Z,30.90
2018-06-08T01:00:57.943Z,31.07
2018-06-08T01:02:01.367Z,28.23
2018-06-08T01:03:04.812Z,32.50
2018-06-08T01:04:08.211Z,28.75
2018-06-08T01:05:12.563Z,30.12
2018-06-08T01:06:17.156Z,29.63
2018-06-08T01:07:20.583Z,35.33
2018-06-08T01:08:23.967Z,28.77
2018-06-08T01:09:27.675Z,30.32
2018-06-08T01:10:32.541Z,31.68
2018-06-08T01:11:35.968Z,29.52
2018-06-08T01:12:39.355Z,32.17
2018-06-08T01:13:42.739Z,33.73
2018-06-08T01:14:46.139Z,28.38
2018-06-08T01:15:50.620Z,34.00
2018-06-08T01:16:54.027Z,30.72
2018-06-08T01:17:57.411Z,30.55
2018-06-08T01:19:00.821Z,31.65
2018-06-08T01:20:04.887Z,39.65
2018-06-08T01:21:09.367Z,34.35
2018-06-08T01:22:12.787Z,33.65
2018-06-08T01:23:16.172Z,35.28
2018-06-08T01:24:19.592Z,30.27
2018-06-08T01:25:23.988Z,31.15
2018-06-08T01:26:28.467Z,32.20
2018-06-08T01:27:31.848Z,34.70
2018-06-08T01:28:35.231Z,31.70
2018-06-08T01:29:38.698Z,39.95
2018-06-08T01:30:43.226Z,36.53
2018-06-08T01:31:46.643Z,34.45
2018-06-08T01:32:50.039Z,34.70
2018-06-08T01:33:53.415Z,32.23
2018-06-08T01:34:56.819Z,31.70
2018-06-08T01:36:01.343Z,32.38
2018-06-08T01:37:04.759Z,34.88
2018-06-08T01:38:08.146Z,35.10
2018-06-08T01:39:11.519Z,34.25
2018-06-08T01:40:16.004Z,34.23
2018-06-08T01:41:21.289Z,36.25
2018-06-08T01:42:24.735Z,37.03
2018-06-08T01:43:28.130Z,36.13
2018-06-08T01:44:31.515Z,35.43
2018-06-08T01:45:36.582Z,36.13
2018-06-08T01:46:39.999Z,36.15
2018-06-08T01:47:43.430Z,39.95
2018-06-08T01:48:46.807Z,33.90
2018-06-08T01:49:50.197Z,37.28
2018-06-08T01:50:54.746Z,36.28
2018-06-08T01:51:58.163Z,32.73
2018-06-08T01:53:01.543Z,35.75
2018-06-08T01:54:04.943Z,36.03
2018-06-08T01:55:09.398Z,34.33
2018-06-08T01:56:13.878Z,34.45
2018-06-08T01:57:17.283Z,30.80
2018-06-08T01:58:20.667Z,32.25
2018-06-08T01:59:24.049Z,37.58
2018-06-08T02:00:28.585Z,33.90
2018-06-08T02:01:31.999Z,37.28
2018-06-08T02:02:35.385Z,34.83
2018-06-08T02:03:38.770Z,35.08
2018-06-08T02:04:42.156Z,36.60
2018-06-08T02:05:46.552Z,32.67
2018-06-08T02:06:50.000Z,33.13
2018-06-08T02:07:53.392Z,31.77
2018-06-08T02:08:56.823Z,35.28
2018-06-08T02:10:00.215Z,32.65
2018-06-08T02:11:04.652Z,36.60
2018-06-08T02:12:08.089Z,34.55
2018-06-08T02:13:11.476Z,30.12
2018-06-08T02:14:14.859Z,35.75
2018-06-08T02:15:19.352Z,35.70
2018-06-08T02:16:23.588Z,35.17
2018-06-08T02:17:27.030Z,30.72
2018-06-08T02:18:30.445Z,34.20
2018-06-08T02:19:33.830Z,35.58
2018-06-08T02:20:38.183Z,29.50
2018-06-08T02:22:51.346Z,36.63
2018-06-08T02:23:54.763Z,34.20
2018-06-08T02:24:58.139Z,36.28
2018-06-08T02:26:02.089Z,33.38
2018-06-08T02:27:05.479Z,34.65
2018-06-08T02:28:08.587Z,35.50
2018-06-08T02:29:12.075Z,34.92
2018-06-08T02:30:16.416Z,34.15
2018-06-08T02:31:20.538Z,34.95
2018-06-08T02:32:23.639Z,34.15
2018-06-08T02:33:26.739Z,41.28
2018-06-08T02:34:30.128Z,37.60
2018-06-08T02:35:34.614Z,33.45
2018-06-08T02:36:38.016Z,36.88
2018-06-08T02:37:41.447Z,35.15
2018-06-08T02:38:44.849Z,34.03
2018-06-08T02:39:48.240Z,33.63
2018-06-08T02:40:52.729Z,38.10
2018-06-08T02:41:55.855Z,34.48
2018-06-08T02:42:58.958Z,37.78
2018-06-08T02:44:02.341Z,39.78
2018-06-08T02:45:06.730Z,40.08
2018-06-08T02:46:11.216Z,39.58
2018-06-08T02:47:14.620Z,35.70
2018-06-08T02:48:18.028Z,38.70
2018-06-08T02:49:21.411Z,35.90
2018-06-08T02:50:25.871Z,35.50
2018-06-08T02:51:29.992Z,33.90
2018-06-08T02:52:33.376Z,34.78
2018-06-08T02:53:36.780Z,33.63
2018-06-08T02:54:40.175Z,36.23
2018-06-08T02:55:44.577Z,36.33
2018-06-08T02:56:48.004Z,36.05
2018-06-08T02:57:51.397Z,36.17
2018-06-08T02:58:54.807Z,39.67
2018-06-08T02:59:58.199Z,38.78
2018-06-08T03:01:02.533Z,39.92
2018-06-08T03:02:05.952Z,42.35
2018-06-08T03:03:09.336Z,40.67
2018-06-08T03:04:12.738Z,41.63
2018-06-08T03:05:17.206Z,36.73
2018-06-08T03:06:22.264Z,40.88
2018-06-08T03:07:25.695Z,40.38
2018-06-08T03:08:29.100Z,38.08
2018-06-08T03:09:32.496Z,40.50
2018-06-08T03:10:37.066Z,40.15
2018-06-08T03:11:40.167Z,39.85
2018-06-08T03:12:43.250Z,37.65
2018-06-08T03:13:46.652Z,35.10
2018-06-08T03:14:50.068Z,34.53
2018-06-08T03:15:54.916Z,37.65
2018-06-08T03:16:58.340Z,38.02
2018-06-08T03:18:01.423Z,42.25
2018-06-08T03:19:04.818Z,37.20
2018-06-08T03:20:09.609Z,41.98
2018-06-08T03:21:14.620Z,37.15
2018-06-08T03:22:18.031Z,35.88
2018-06-08T03:23:21.419Z,34.27
2018-06-08T03:24:24.811Z,36.68
2018-06-08T03:25:29.296Z,40.95
2018-06-08T03:26:32.740Z,32.98
2018-06-08T03:27:36.132Z,37.70
2018-06-08T03:28:39.511Z,39.70
2018-06-08T03:29:42.892Z,38.50
2018-06-08T03:30:47.345Z,44.25
2018-06-08T03:31:50.786Z,37.60
2018-06-08T03:32:54.167Z,38.13
2018-06-08T03:33:57.557Z,36.90
2018-06-08T03:35:00.947Z,37.05
2018-06-08T03:36:06.078Z,38.30
2018-06-08T03:37:09.500Z,38.55
2018-06-08T03:38:12.879Z,39.25
2018-06-08T03:39:16.275Z,35.23
2018-06-08T03:40:21.540Z,36.55
2018-06-08T03:41:25.649Z,36.10
2018-06-08T03:42:29.061Z,38.23
2018-06-08T03:43:32.443Z,36.45
2018-06-08T03:44:35.827Z,37.80
2018-06-08T03:45:40.187Z,40.12
2018-06-08T03:46:43.623Z,37.90
2018-06-08T03:47:47.017Z,37.38
2018-06-08T03:48:50.403Z,36.50
2018-06-08T03:49:53.795Z,35.78
2018-06-08T03:50:58.208Z,40.85
2018-06-08T03:52:01.334Z,37.85
2018-06-08T03:53:05.041Z,39.75
2018-06-08T03:54:08.424Z,35.45
2018-06-08T03:55:13.728Z,42.27
2018-06-08T03:56:18.063Z,38.85
2018-06-08T03:57:21.498Z,38.53
2018-06-08T03:58:24.880Z,37.17
2018-06-08T03:59:28.259Z,37.15
2018-06-08T04:00:32.684Z,41.70
2018-06-08T04:01:35.798Z,40.55
2018-06-08T04:02:38.894Z,39.50
2018-06-08T04:03:42.288Z,38.23
2018-06-08T04:04:45.667Z,38.65
2018-06-08T04:05:50.050Z,40.48
2018-06-08T04:06:53.449Z,38.95
2018-06-08T04:07:56.851Z,34.53
2018-06-08T04:09:00.263Z,45.17
2018-06-08T04:10:04.235Z,40.90
2018-06-08T04:11:10.294Z,41.85
2018-06-08T04:12:15.012Z,40.05
2018-06-08T04:13:18.423Z,40.45
2018-06-08T04:14:21.811Z,41.77
2018-06-08T04:15:26.304Z,38.63
2018-06-08T04:16:30.221Z,41.37
2018-06-08T04:17:33.615Z,41.23
2018-06-08T04:18:37.024Z,44.73
2018-06-08T04:19:40.408Z,40.38
2018-06-08T04:20:44.887Z,41.10
2018-06-08T04:21:48.303Z,40.03
2018-06-08T04:22:51.679Z,43.10
2018-06-08T04:23:55.074Z,43.58
2018-06-08T04:24:58.154Z,41.45
2018-06-08T04:26:01.823Z,41.58
2018-06-08T04:27:05.235Z,38.83
2018-06-08T04:28:08.619Z,40.40
2018-06-08T04:29:12.007Z,39.20
2018-06-08T04:30:16.473Z,43.00
2018-06-08T04:31:20.983Z,39.67
2018-06-08T04:32:24.393Z,40.03
2018-06-08T04:33:27.767Z,43.05
2018-06-08T04:34:31.199Z,41.65
2018-06-08T04:35:35.511Z,43.45
2018-06-08T04:36:38.904Z,40.73
2018-06-08T04:37:42.297Z,48.15
2018-06-08T04:38:45.683Z,43.63
2018-06-08T04:39:49.099Z,40.43
2018-06-08T04:40:53.556Z,43.58
2018-06-08T04:41:56.967Z,46.08
2018-06-08T04:43:00.391Z,44.88
2018-06-08T04:44:03.999Z,45.55
2018-06-08T04:45:08.356Z,45.98
2018-06-08T04:46:12.738Z,48.40
2018-06-08T04:47:16.140Z,47.15
2018-06-08T04:48:19.535Z,46.40
2018-06-08T04:49:22.939Z,50.85
2018-06-08T04:50:27.984Z,48.05
2018-06-08T04:51:31.397Z,48.98
2018-06-08T04:52:34.943Z,52.03
2018-06-08T04:53:38.323Z,50.12
2018-06-08T04:54:41.725Z,48.35
2018-06-08T04:55:46.146Z,47.30
2018-06-08T04:56:49.633Z,48.28
2018-06-08T04:57:53.031Z,53.85
2018-06-08T04:58:56.411Z,49.38
2018-06-08T04:59:59.807Z,47.33
2018-06-08T05:01:04.462Z,49.65
2018-06-08T05:02:07.900Z,50.88
2018-06-08T05:03:11.287Z,52.75
2018-06-08T05:04:14.679Z,60.92
2018-06-08T05:05:19.271Z,52.50
2018-06-08T05:06:23.699Z,53.85
2018-06-08T05:07:27.141Z,54.88
2018-06-08T05:08:30.531Z,51.88
2018-06-08T05:09:33.927Z,55.58
2018-06-08T05:10:38.396Z,49.88
2018-06-08T05:11:41.835Z,54.18
2018-06-08T05:12:45.224Z,55.63
2018-06-08T05:13:48.639Z,51.63
2018-06-08T05:14:52.027Z,53.68
2018-06-08T05:15:56.443Z,50.73
2018-06-08T05:16:59.891Z,51.83
2018-06-08T05:18:03.292Z,51.13
2018-06-08T05:19:06.679Z,57.10
2018-06-08T05:20:11.202Z,52.15
2018-06-08T05:21:15.876Z,52.55
2018-06-08T05:22:19.323Z,52.27
2018-06-08T05:23:22.402Z,52.20
2018-06-08T05:24:25.490Z,54.80
2018-06-08T05:25:30.566Z,49.63
2018-06-08T05:26:33.975Z,52.03
2018-06-08T05:27:37.380Z,50.63
2018-06-08T05:28:40.763Z,50.50
2018-06-08T05:29:44.164Z,46.60
2018-06-08T05:30:48.724Z,52.03
2018-06-08T05:31:52.176Z,50.35
2018-06-08T05:32:55.564Z,52.95
2018-06-08T05:33:58.955Z,47.13
2018-06-08T05:35:02.359Z,46.53
2018-06-08T05:36:06.860Z,52.88
2018-06-08T05:37:10.244Z,49.67
2018-06-08T05:38:13.667Z,49.73
2018-06-08T05:39:17.055Z,55.12
2018-06-08T05:40:22.116Z,51.02
2018-06-08T05:41:26.500Z,52.25
2018-06-08T05:42:29.948Z,65.95
2018-06-08T05:43:33.344Z,52.80
2018-06-08T05:44:36.770Z,55.25
2018-06-08T05:45:40.656Z,58.92
2018-06-08T05:46:44.096Z,51.42
2018-06-08T05:47:47.495Z,50.25
2018-06-08T05:48:50.892Z,52.10
2018-06-08T05:49:54.280Z,50.90
2018-06-08T05:50:58.618Z,53.40
2018-06-08T05:52:02.051Z,52.67
2018-06-08T05:53:05.472Z,51.83
2018-06-08T05:54:08.902Z,50.90
2018-06-08T05:55:13.479Z,54.35
2018-06-08T05:56:18.165Z,50.52
2018-06-08T05:57:21.664Z,47.85
2018-06-08T05:58:25.052Z,51.80
2018-06-08T05:59:28.463Z,50.55
2018-06-08T06:00:32.928Z,51.73
2018-06-08T06:01:36.344Z,47.60
2018-06-08T06:02:39.759Z,48.68
2018-06-08T06:03:42.844Z,51.40
2018-06-08T06:04:45.944Z,54.75
2018-06-08T06:05:50.402Z,44.27
2018-06-08T06:06:53.851Z,51.13
2018-06-08T06:07:57.235Z,47.50
2018-06-08T06:09:00.615Z,46.20
2018-06-08T06:10:05.447Z,40.15
2018-06-08T06:11:09.945Z,41.30
2018-06-08T06:12:13.356Z,42.78
2018-06-08T06:13:16.775Z,39.23
2018-06-08T06:14:20.164Z,40.88
2018-06-08T06:15:24.923Z,40.12
2018-06-08T06:16:29.083Z,42.27
2018-06-08T06:17:32.459Z,43.33
2018-06-08T06:18:35.872Z,40.10
2018-06-08T06:19:38.957Z,40.20
2018-06-08T06:20:43.287Z,41.55
2018-06-08T06:21:46.716Z,44.08
2018-06-08T06:22:50.109Z,41.28
2018-06-08T06:23:53.512Z,37.95
2018-06-08T06:24:56.903Z,38.98
2018-06-08T06:26:01.347Z,37.60
2018-06-08T06:27:04.755Z,38.35
2018-06-08T06:28:08.148Z,37.93
2018-06-08T06:29:11.563Z,40.38
2018-06-08T06:30:16.065Z,37.28
2018-06-08T06:31:20.601Z,40.63
2018-06-08T06:32:24.081Z,45.05
2018-06-08T06:33:27.439Z,34.98
2018-06-08T06:34:30.827Z,39.08
2018-06-08T06:35:35.251Z,38.65
2018-06-08T06:36:38.365Z,39.15
2018-06-08T06:37:41.769Z,42.60
2018-06-08T06:38:45.163Z,33.90
2018-06-08T06:39:48.561Z,37.33
2018-06-08T06:40:53.013Z,38.17
2018-06-08T06:41:56.431Z,39.25
2018-06-08T06:42:59.815Z,41.33
2018-06-08T06:44:03.226Z,40.45
2018-06-08T06:45:08.429Z,38.42
2018-06-08T06:46:12.826Z,37.70
2018-06-08T06:47:16.263Z,38.48
2018-06-08T06:48:19.663Z,38.15
2018-06-08T06:49:23.051Z,39.10
2018-06-08T06:50:28.713Z,36.75
2018-06-08T06:51:32.619Z,34.27
2018-06-08T06:52:35.718Z,37.05
2018-06-08T06:53:39.112Z,36.77
2018-06-08T06:54:42.499Z,38.28
2018-06-08T06:55:47.763Z,35.65
2018-06-08T06:56:51.215Z,35.85
2018-06-08T06:57:54.595Z,36.33
2018-06-08T06:58:57.995Z,34.95
2018-06-08T07:00:01.388Z,36.10
2018-06-08T07:01:06.732Z,34.48
2018-06-08T07:02:09.861Z,34.90
2018-06-08T07:03:13.247Z,33.48
2018-06-08T07:04:16.647Z,36.08
2018-06-08T07:05:21.070Z,36.55
2018-06-08T07:06:24.643Z,31.95
2018-06-08T07:07:28.089Z,31.97
2018-06-08T07:08:31.475Z,32.40
2018-06-08T07:09:34.653Z,33.23
2018-06-08T07:10:39.094Z,31.65
2018-06-08T07:11:42.520Z,31.25
2018-06-08T07:12:45.966Z,35.10
2018-06-08T07:13:49.347Z,31.57
2018-06-08T07:14:52.740Z,33.13
2018-06-08T07:15:57.149Z,29.92
2018-06-08T07:17:00.575Z,30.37
2018-06-08T07:18:04.101Z,29.63
2018-06-08T07:19:07.495Z,27.82
2018-06-08T07:20:11.980Z,29.70
2018-06-08T07:21:16.509Z,30.02
2018-06-08T07:22:21.039Z,29.50
2018-06-08T07:23:24.135Z,29.18
2018-06-08T07:24:27.527Z,28.10
2018-06-08T07:25:31.885Z,31.87
2018-06-08T07:26:34.995Z,27.73
2018-06-08T07:27:38.082Z,28.50
2018-06-08T07:28:41.501Z,25.97
2018-06-08T07:29:44.880Z,26.90
2018-06-08T07:30:49.337Z,25.32
2018-06-08T07:31:52.856Z,28.90
2018-06-08T07:32:56.160Z,29.32
2018-06-08T07:33:59.587Z,27.40
2018-06-08T07:35:03.230Z,26.05
2018-06-08T07:36:07.692Z,26.57
2018-06-08T07:37:11.095Z,30.72
2018-06-08T07:38:14.479Z,30.37
2018-06-08T07:39:17.587Z,26.12
2018-06-08T07:40:22.256Z,26.90
2018-06-08T07:41:26.500Z,24.77
2018-06-08T07:42:29.912Z,24.65
2018-06-08T07:43:33.303Z,22.98
2018-06-08T07:44:36.711Z,25.75
2018-06-08T07:45:41.135Z,24.63
2018-06-08T07:46:44.611Z,27.02
2018-06-08T07:47:47.975Z,24.98
2018-06-08T07:48:51.359Z,21.57
2018-06-08T07:49:54.767Z,23.18
2018-06-08T07:50:59.263Z,25.43
2018-06-08T07:52:02.400Z,21.45
2018-06-08T07:53:05.829Z,21.40
2018-06-08T07:54:09.228Z,22.02
2018-06-08T07:55:13.637Z,22.87
2018-06-08T07:56:17.694Z,22.15
2018-06-08T07:57:21.124Z,22.02
2018-06-08T07:58:24.519Z,23.07
2018-06-08T07:59:27.940Z,21.85
2018-06-08T08:00:32.420Z,22.67
2018-06-08T08:01:35.837Z,21.12
2018-06-08T08:02:39.282Z,24.92
2018-06-08T08:03:42.682Z,25.52
2018-06-08T08:04:46.086Z,22.13
2018-06-08T08:05:50.018Z,24.23
2018-06-08T08:06:53.449Z,24.43
2018-06-08T08:07:56.843Z,20.43
2018-06-08T08:09:00.291Z,21.52
2018-06-08T08:10:03.715Z,23.12
2018-06-08T08:11:08.797Z,28.20
2018-06-08T08:12:12.227Z,23.70
2018-06-08T08:13:15.615Z,22.67
2018-06-08T08:14:19.015Z,24.45
2018-06-08T08:15:23.626Z,24.32
2018-06-08T08:16:28.183Z,22.30
2018-06-08T08:17:31.607Z,22.85
2018-06-08T08:18:35.003Z,23.65
2018-06-08T08:19:38.387Z,27.05
2018-06-08T08:20:42.914Z,21.93
2018-06-08T08:21:46.343Z,21.70
2018-06-08T08:22:49.744Z,23.98
2018-06-08T08:23:53.135Z,21.40
2018-06-08T08:24:56.536Z,25.80
2018-06-08T08:26:00.998Z,25.10
2018-06-08T08:27:04.485Z,24.07
2018-06-08T08:28:07.910Z,23.50
2018-06-08T08:29:11.319Z,23.92
2018-06-08T08:30:16.389Z,29.07
2018-06-08T08:31:20.879Z,26.60
2018-06-08T08:32:24.286Z,25.23
2018-06-08T08:33:27.700Z,22.95
2018-06-08T08:34:31.088Z,24.35
2018-06-08T08:35:35.643Z,23.25
2018-06-08T08:36:39.076Z,23.25
2018-06-08T08:37:42.463Z,21.55
2018-06-08T08:38:45.855Z,25.00
2018-06-08T08:39:49.238Z,26.42
2018-06-08T08:40:53.928Z,24.55
2018-06-08T08:41:57.379Z,23.10
2018-06-08T08:43:00.808Z,26.70
2018-06-08T08:44:04.800Z,24.60
2018-06-08T08:45:09.511Z,22.73
2018-06-08T08:46:14.048Z,25.48
2018-06-08T08:47:18.051Z,24.82
2018-06-08T08:48:21.444Z,25.95
2018-06-08T08:49:24.836Z,23.95
2018-06-08T08:50:29.649Z,26.93
2018-06-08T08:51:33.170Z,25.35
2018-06-08T08:52:36.497Z,22.22
2018-06-08T08:53:39.887Z,25.60
2018-06-08T08:54:43.272Z,26.62
2018-06-08T08:55:49.101Z,23.20
2018-06-08T08:56:52.545Z,26.05
2018-06-08T08:57:56.263Z,25.45
2018-06-08T08:58:59.346Z,27.58
2018-06-08T09:00:02.772Z,27.65
2018-06-08T09:01:07.707Z,21.48
2018-06-08T09:02:11.139Z,24.72
2018-06-08T09:03:14.243Z,22.55
2018-06-08T09:04:17.637Z,24.52
2018-06-08T09:05:22.021Z,22.42
2018-06-08T09:06:26.406Z,21.40
2018-06-08T09:07:30.005Z,21.55
2018-06-08T09:08:33.413Z,22.27
2018-06-08T09:09:36.511Z,23.50
2018-06-08T09:10:41.741Z,23.80
2018-06-08T09:11:45.188Z,27.98
2018-06-08T09:12:48.587Z,24.27
2018-06-08T09:13:51.687Z,27.10
2018-06-08T09:14:55.100Z,31.97
2018-06-08T09:15:59.723Z,26.23
2018-06-08T09:17:02.847Z,28.12
2018-06-08T09:18:05.923Z,25.40
2018-06-08T09:19:09.063Z,25.35
2018-06-08T09:20:13.511Z,26.90
2018-06-08T09:21:18.634Z,27.52
2018-06-08T09:22:22.044Z,26.52
2018-06-08T09:23:25.475Z,26.42
2018-06-08T09:24:28.903Z,25.30
2018-06-08T09:25:36.608Z,26.68
2018-06-08T09:26:40.029Z,24.67
2018-06-08T09:27:43.428Z,29.15
2018-06-08T09:28:47.135Z,25.00
2018-06-08T09:29:50.564Z,25.27
2018-06-08T09:30:55.030Z,24.92
2018-06-08T09:31:58.451Z,26.85
2018-06-08T09:33:01.851Z,30.08
2018-06-08T09:34:05.279Z,26.33
2018-06-08T09:35:09.721Z,26.42
2018-06-08T09:36:14.243Z,25.60
2018-06-08T09:37:17.659Z,28.45
2018-06-08T09:38:21.084Z,27.75
2018-06-08T09:39:24.787Z,30.70
2018-06-08T09:40:29.110Z,27.50
2018-06-08T09:41:32.566Z,27.60
2018-06-08T09:42:35.973Z,28.90
2018-06-08T09:43:39.353Z,26.77
2018-06-08T09:44:42.759Z,28.02
2018-06-08T09:45:47.261Z,29.77
2018-06-08T09:46:50.712Z,27.35
2018-06-08T09:47:54.200Z,26.75
2018-06-08T09:48:57.587Z,27.67
2018-06-08T09:50:01.000Z,28.00
2018-06-08T09:51:05.405Z,27.58
2018-06-08T09:52:08.833Z,30.20
2018-06-08T09:53:12.219Z,26.05
2018-06-08T09:54:15.605Z,29.50
2018-06-08T09:55:20.213Z,27.02
2018-06-08T09:56:24.374Z,26.45
2018-06-08T09:57:27.772Z,24.85
2018-06-08T09:58:31.178Z,26.82
2018-06-08T09:59:34.587Z,24.65
2018-06-08T10:00:42.195Z,26.52
2018-06-08T10:01:45.616Z,26.37
2018-06-08T10:02:49.003Z,25.75
2018-06-08T10:03:52.416Z,25.48
2018-06-08T10:04:55.819Z,26.75
2018-06-08T10:05:59.227Z,23.20
2018-06-08T10:07:02.612Z,22.95
2018-06-08T10:08:06.499Z,24.75
2018-06-08T10:09:09.977Z,23.67
2018-06-08T10:10:13.913Z,23.07
2018-06-08T10:11:17.977Z,24.85
2018-06-08T10:12:21.147Z,26.02
2018-06-08T10:13:24.537Z,28.50
2018-06-08T10:14:27.975Z,25.35
2018-06-08T10:15:32.276Z,26.87
2018-06-08T10:16:35.428Z,24.02
2018-06-08T10:17:38.804Z,24.85
2018-06-08T10:18:42.199Z,22.25
2018-06-08T10:19:45.584Z,21.20
2018-06-08T10:20:50.068Z,22.58
2018-06-08T10:21:53.955Z,24.92
2018-06-08T10:22:57.357Z,23.70
2018-06-08T10:24:00.743Z,22.75
2018-06-08T10:25:04.989Z,21.87
2018-06-08T10:26:09.035Z,26.42
2018-06-08T10:27:12.467Z,22.00
2018-06-08T10:28:15.869Z,22.45
2018-06-08T10:29:19.269Z,23.30
2018-06-08T10:30:23.779Z,24.65
2018-06-08T10:31:28.349Z,24.45
2018-06-08T10:32:32.103Z,23.65
2018-06-08T10:33:35.515Z,22.70
2018-06-08T10:34:38.928Z,26.85
2018-06-08T10:35:43.373Z,22.52
2018-06-08T10:36:46.484Z,21.15
2018-06-08T10:37:49.886Z,25.20
2018-06-08T10:38:53.271Z,25.75
2018-06-08T10:39:56.720Z,22.13
2018-06-08T10:41:01.260Z,21.68
2018-06-08T10:42:04.687Z,25.08
2018-06-08T10:43:08.095Z,18.60
2018-06-08T10:44:11.492Z,21.55
2018-06-08T10:45:15.845Z,17.65
2018-06-08T10:46:20.321Z,21.17
2018-06-08T10:47:23.423Z,20.45
2018-06-08T10:48:26.831Z,20.45
2018-06-08T10:49:30.216Z,18.00
2018-06-08T10:50:34.720Z,21.05
2018-06-08T10:51:38.164Z,18.17
2018-06-08T10:52:41.564Z,17.90
2018-06-08T10:53:44.980Z,21.15
2018-06-08T10:54:48.387Z,18.02
2018-06-08T10:55:52.741Z,18.10
2018-06-08T10:56:56.168Z,18.98
2018-06-08T10:57:59.584Z,20.88
2018-06-08T10:59:02.995Z,18.45
2018-06-08T11:00:07.578Z,17.80
2018-06-08T11:01:12.438Z,18.52
2018-06-08T11:02:15.839Z,15.78
2018-06-08T11:03:19.346Z,17.10
2018-06-08T11:04:22.730Z,17.20
2018-06-08T11:05:27.185Z,17.75
2018-06-08T11:06:30.872Z,16.17
2018-06-08T11:07:34.341Z,15.48
2018-06-08T11:08:37.455Z,14.38
2018-06-08T11:09:40.852Z,16.05
2018-06-08T11:10:45.349Z,15.63
2018-06-08T11:11:48.767Z,15.70
2018-06-08T11:12:52.143Z,14.20
2018-06-08T11:13:55.553Z,14.87
2018-06-08T11:14:58.950Z,14.70
2018-06-08T11:16:03.407Z,14.05
2018-06-08T11:17:06.848Z,13.53
2018-06-08T11:18:10.236Z,15.18
2018-06-08T11:19:13.672Z,15.15
2018-06-08T11:20:18.288Z,14.98
2018-06-08T11:21:22.637Z,13.88
2018-06-08T11:22:26.047Z,13.15
2018-06-08T11:23:29.436Z,14.43
2018-06-08T11:24:32.851Z,13.68
2018-06-08T11:25:37.869Z,13.85
2018-06-08T11:26:41.291Z,16.55
2018-06-08T11:27:44.715Z,13.45
2018-06-08T11:28:48.123Z,18.32
2018-06-08T11:29:51.535Z,15.15
2018-06-08T11:30:56.160Z,14.65
2018-06-08T11:31:59.577Z,17.82
2018-06-08T11:33:02.978Z,15.50
2018-06-08T11:34:06.692Z,14.73
2018-06-08T11:35:11.366Z,13.85
2018-06-08T11:36:15.717Z,15.00
2018-06-08T11:37:19.125Z,15.20
2018-06-08T11:38:22.515Z,16.55
2018-06-08T11:39:25.941Z,14.93
2018-06-08T11:40:30.420Z,15.70
2018-06-08T11:41:33.845Z,18.57
2018-06-08T11:42:37.243Z,15.98
2018-06-08T11:43:40.628Z,15.88
2018-06-08T11:44:44.039Z,16.07
2018-06-08T11:45:48.997Z,19.02
2018-06-08T11:46:52.417Z,18.60
2018-06-08T11:47:55.813Z,18.87
2018-06-08T11:48:59.208Z,15.78
2018-06-08T11:50:02.624Z,16.07
2018-06-08T11:51:07.036Z,15.13
2018-06-08T11:52:10.449Z,16.17
2018-06-08T11:53:16.990Z,16.00
2018-06-08T11:54:20.379Z,18.40
2018-06-08T11:55:25.027Z,16.93
2018-06-08T11:56:29.175Z,17.10
2018-06-08T11:57:32.577Z,16.02
2018-06-08T11:58:35.975Z,17.62
2018-06-08T11:59:39.359Z,16.12
2018-06-08T12:00:43.780Z,17.77
2018-06-08T12:01:47.200Z,15.68
2018-06-08T12:02:50.611Z,16.20
2018-06-08T12:03:53.996Z,14.68
2018-06-08T12:04:57.395Z,14.95
2018-06-08T12:06:01.921Z,13.90
2018-06-08T12:07:05.384Z,13.68
2018-06-08T12:08:08.771Z,16.40
2018-06-08T12:09:12.339Z,20.23
2018-06-08T12:10:16.796Z,15.90
2018-06-08T12:11:21.730Z,15.25
2018-06-08T12:12:25.167Z,17.98
2018-06-08T12:13:28.568Z,15.20
2018-06-08T12:14:31.957Z,14.75
2018-06-08T12:15:36.241Z,14.25
2018-06-08T12:16:40.969Z,14.20
2018-06-08T12:17:44.389Z,14.47
2018-06-08T12:18:47.784Z,15.05
2018-06-08T12:19:51.168Z,15.28
2018-06-08T12:20:55.582Z,13.85
2018-06-08T12:21:59.011Z,12.20
2018-06-08T12:23:02.407Z,11.90
2018-06-08T12:24:05.875Z,10.35
2018-06-08T12:25:10.937Z,11.85
2018-06-08T12:26:14.637Z,12.23
2018-06-08T12:27:18.336Z,10.93
2018-06-08T12:28:21.729Z,9.53
2018-06-08T12:29:25.111Z,9.40
2018-06-08T12:30:30.286Z,8.78
2018-06-08T12:31:33.685Z,9.83
2018-06-08T12:32:37.087Z,9.05
2018-06-08T12:33:40.167Z,9.83
2018-06-08T12:34:43.552Z,7.78
2018-06-08T12:35:48.036Z,10.55
2018-06-08T12:36:51.459Z,9.75
2018-06-08T12:37:54.869Z,11.40
2018-06-08T12:38:58.296Z,9.13
2018-06-08T12:40:01.685Z,10.82
2018-06-08T12:41:06.015Z,9.28
2018-06-08T12:43:19.126Z,9.15
2018-06-08T12:44:22.542Z,9.13
2018-06-08T12:45:26.379Z,8.18
2018-06-08T12:46:30.040Z,9.25
2018-06-08T12:47:33.435Z,9.85
2018-06-08T12:48:36.843Z,9.80
2018-06-08T12:49:40.227Z,8.58
2018-06-08T12:50:45.368Z,9.05
2018-06-08T12:51:48.776Z,10.00
2018-06-08T12:52:52.178Z,9.95
2018-06-08T12:53:55.587Z,11.50
2018-06-08T12:54:58.978Z,10.98
2018-06-08T12:56:03.254Z,11.22
2018-06-08T12:57:06.673Z,11.40
2018-06-08T12:58:10.065Z,12.55
2018-06-08T12:59:13.500Z,11.83
2018-06-08T13:00:18.062Z,11.43
2018-06-08T13:01:23.011Z,13.88
2018-06-08T13:02:26.480Z,13.95
2018-06-08T13:03:29.880Z,12.73
2018-06-08T13:04:33.291Z,13.50
2018-06-08T13:05:37.843Z,13.20
2018-06-08T13:06:41.263Z,12.78
2018-06-08T13:07:44.643Z,14.13
2018-06-08T13:08:48.041Z,12.37
2018-06-08T13:09:51.810Z,12.30
2018-06-08T13:10:56.242Z,13.03
2018-06-08T13:11:59.659Z,13.38
2018-06-08T13:13:03.694Z,13.25
2018-06-08T13:14:07.083Z,14.70
2018-06-08T13:15:12.545Z,14.65
2018-06-08T13:16:17.419Z,14.30
2018-06-08T13:17:20.891Z,13.88
2018-06-08T13:18:24.287Z,14.30
2018-06-08T13:19:27.675Z,18.87
2018-06-08T13:20:32.315Z,16.00
2018-06-08T13:21:35.740Z,16.52
2018-06-08T13:22:39.128Z,17.52
2018-06-08T13:23:42.551Z,15.05
2018-06-08T13:24:45.646Z,16.57
2018-06-08T13:25:49.513Z,18.70
2018-06-08T13:26:52.627Z,18.17
2018-06-08T13:27:55.715Z,18.17
2018-06-08T13:28:59.107Z,18.15
2018-06-08T13:30:02.553Z,17.25
2018-06-08T13:31:07.728Z,16.95
2018-06-08T13:32:11.145Z,19.65
2018-06-08T13:33:14.527Z,17.65
2018-06-08T13:34:18.103Z,19.55
2018-06-08T13:35:23.507Z,18.15
2018-06-08T13:36:27.927Z,20.02
2018-06-08T13:37:31.324Z,19.52
2018-06-08T13:38:34.711Z,19.80
2018-06-08T13:39:38.139Z,19.95
2018-06-08T13:40:42.624Z,21.40
2018-06-08T13:41:46.067Z,20.15
2018-06-08T13:42:49.459Z,20.17
2018-06-08T13:43:52.854Z,18.95